sensor_id;sensor_type;location;lat;lon;timestamp;P1;durP1;ratioP1;P2;durP2;ratioP2
34982;SDS011;21187;50.976;13.720;2022-09-21T00:03:08;8.43;;;2.53;;
34982;SDS011;21187;50.976;13.720;2022-09-21T00:08:10;10.02;;;2.75;;
34982;SDS011;21187;50.976;13.720;2022-09-21T00:13:13;12.82;;;2.80;;
34982;SDS011;21187;50.976;13.720;2022-09-21T00:18:16;14.85;;;3.05;;
34982;SDS011;21187;50.976;13.720;2022-09-21T00:23:19;5.80;;;2.10;;
34982;SDS011;21187;50.976;13.720;2022-09-21T00:28:21;5.28;;;2.67;;
34982;SDS011;21187;50.976;13.720;2022-09-21T00:33:23;9.10;;;2.97;;
34982;SDS011;21187;50.976;13.720;2022-09-21T00:38:25;13.02;;;3.40;;
34982;SDS011;21187;50.976;13.720;2022-09-21T00:43:27;9.73;;;2.75;;
34982;SDS011;21187;50.976;13.720;2022-09-21T00:48:29;6.72;;;2.78;;
34982;SDS011;21187;50.976;13.720;2022-09-21T00:53:31;9.10;;;2.35;;
34982;SDS011;21187;50.976;13.720;2022-09-21T00:58:38;6.25;;;2.38;;
34982;SDS011;21187;50.976;13.720;2022-09-21T01:03:45;5.20;;;2.20;;
34982;SDS011;21187;50.976;13.720;2022-09-21T01:08:49;6.55;;;1.90;;
34982;SDS011;21187;50.976;13.720;2022-09-21T01:19:31;9.18;;;2.80;;
34982;SDS011;21187;50.976;13.720;2022-09-21T01:30:06;5.25;;;2.10;;
34982;SDS011;21187;50.976;13.720;2022-09-21T01:35:30;6.90;;;2.00;;
34982;SDS011;21187;50.976;13.720;2022-09-21T01:40:37;4.60;;;1.70;;
34982;SDS011;21187;50.976;13.720;2022-09-21T01:45:45;4.70;;;1.83;;
34982;SDS011;21187;50.976;13.720;2022-09-21T01:50:51;5.88;;;1.60;;
34982;SDS011;21187;50.976;13.720;2022-09-21T01:55:57;3.63;;;1.52;;
34982;SDS011;21187;50.976;13.720;2022-09-21T02:01:05;2.92;;;1.73;;
34982;SDS011;21187;50.976;13.720;2022-09-21T02:06:10;5.47;;;2.10;;
34982;SDS011;21187;50.976;13.720;2022-09-21T02:11:14;8.05;;;2.25;;
34982;SDS011;21187;50.976;13.720;2022-09-21T02:26:33;4.82;;;2.10;;
34982;SDS011;21187;50.976;13.720;2022-09-21T02:31:58;3.92;;;2.03;;
34982;SDS011;21187;50.976;13.720;2022-09-21T02:37:09;5.03;;;1.88;;
34982;SDS011;21187;50.976;13.720;2022-09-21T02:42:27;3.92;;;1.90;;
34982;SDS011;21187;50.976;13.720;2022-09-21T02:52:43;7.78;;;3.00;;
34982;SDS011;21187;50.976;13.720;2022-09-21T02:57:45;8.35;;;3.00;;
34982;SDS011;21187;50.976;13.720;2022-09-21T03:02:48;7.60;;;2.95;;
34982;SDS011;21187;50.976;13.720;2022-09-21T03:07:50;9.48;;;2.83;;
34982;SDS011;21187;50.976;13.720;2022-09-21T03:12:55;6.03;;;2.95;;
34982;SDS011;21187;50.976;13.720;2022-09-21T03:17:59;8.30;;;3.47;;
34982;SDS011;21187;50.976;13.720;2022-09-21T03:23:02;7.70;;;3.70;;
34982;SDS011;21187;50.976;13.720;2022-09-21T03:28:03;7.57;;;3.92;;
34982;SDS011;21187;50.976;13.720;2022-09-21T03:33:05;9.98;;;3.92;;
34982;SDS011;21187;50.976;13.720;2022-09-21T03:38:08;9.45;;;4.30;;
34982;SDS011;21187;50.976;13.720;2022-09-21T03:43:10;8.60;;;4.03;;
34982;SDS011;21187;50.976;13.720;2022-09-21T03:48:13;11.40;;;3.80;;
34982;SDS011;21187;50.976;13.720;2022-09-21T03:53:15;9.40;;;4.05;;
34982;SDS011;21187;50.976;13.720;2022-09-21T03:58:17;10.40;;;4.15;;
34982;SDS011;21187;50.976;13.720;2022-09-21T04:03:19;7.97;;;4.18;;
34982;SDS011;21187;50.976;13.720;2022-09-21T04:08:21;18.42;;;5.28;;
34982;SDS011;21187;50.976;13.720;2022-09-21T04:13:23;8.13;;;4.20;;
34982;SDS011;21187;50.976;13.720;2022-09-21T04:18:25;10.32;;;4.00;;
34982;SDS011;21187;50.976;13.720;2022-09-21T04:23:27;12.55;;;4.72;;
34982;SDS011;21187;50.976;13.720;2022-09-21T04:28:28;13.48;;;5.25;;
34982;SDS011;21187;50.976;13.720;2022-09-21T04:33:31;10.68;;;4.38;;
34982;SDS011;21187;50.976;13.720;2022-09-21T04:38:33;14.60;;;5.20;;
34982;SDS011;21187;50.976;13.720;2022-09-21T04:43:35;10.93;;;5.05;;
34982;SDS011;21187;50.976;13.720;2022-09-21T04:48:37;15.45;;;5.32;;
34982;SDS011;21187;50.976;13.720;2022-09-21T04:53:40;11.18;;;5.00;;
34982;SDS011;21187;50.976;13.720;2022-09-21T04:58:43;12.27;;;5.53;;
34982;SDS011;21187;50.976;13.720;2022-09-21T05:03:45;13.15;;;5.38;;
34982;SDS011;21187;50.976;13.720;2022-09-21T05:08:47;11.02;;;5.78;;
34982;SDS011;21187;50.976;13.720;2022-09-21T05:14:07;15.10;;;6.10;;
34982;SDS011;21187;50.976;13.720;2022-09-21T05:19:09;11.35;;;5.30;;
34982;SDS011;21187;50.976;13.720;2022-09-21T05:24:11;12.82;;;6.03;;
34982;SDS011;21187;50.976;13.720;2022-09-21T05:29:13;10.35;;;5.75;;
34982;SDS011;21187;50.976;13.720;2022-09-21T05:39:59;16.98;;;5.90;;
34982;SDS011;21187;50.976;13.720;2022-09-21T05:45:02;11.70;;;5.72;;
34982;SDS011;21187;50.976;13.720;2022-09-21T06:00:41;13.88;;;7.10;;
34982;SDS011;21187;50.976;13.720;2022-09-21T06:05:55;13.80;;;6.05;;
34982;SDS011;21187;50.976;13.720;2022-09-21T06:10:58;17.25;;;6.40;;
34982;SDS011;21187;50.976;13.720;2022-09-21T06:16:01;17.73;;;7.43;;
34982;SDS011;21187;50.976;13.720;2022-09-21T06:21:04;13.85;;;6.38;;
34982;SDS011;21187;50.976;13.720;2022-09-21T06:26:07;15.50;;;7.53;;
34982;SDS011;21187;50.976;13.720;2022-09-21T06:31:09;16.42;;;8.35;;
34982;SDS011;21187;50.976;13.720;2022-09-21T06:36:11;17.90;;;7.45;;
34982;SDS011;21187;50.976;13.720;2022-09-21T06:41:14;14.07;;;7.20;;
34982;SDS011;21187;50.976;13.720;2022-09-21T06:46:21;18.08;;;8.63;;
34982;SDS011;21187;50.976;13.720;2022-09-21T06:51:23;17.50;;;7.07;;
34982;SDS011;21187;50.976;13.720;2022-09-21T06:56:25;13.05;;;7.07;;
34982;SDS011;21187;50.976;13.720;2022-09-21T07:01:27;21.90;;;7.32;;
34982;SDS011;21187;50.976;13.720;2022-09-21T07:06:29;13.23;;;6.38;;
34982;SDS011;21187;50.976;13.720;2022-09-21T07:11:31;12.85;;;6.45;;
34982;SDS011;21187;50.976;13.720;2022-09-21T07:16:33;12.07;;;6.18;;
34982;SDS011;21187;50.976;13.720;2022-09-21T07:21:35;20.88;;;6.38;;
34982;SDS011;21187;50.976;13.720;2022-09-21T07:26:37;11.63;;;6.43;;
34982;SDS011;21187;50.976;13.720;2022-09-21T07:31:41;11.95;;;6.03;;
34982;SDS011;21187;50.976;13.720;2022-09-21T07:36:44;13.68;;;5.90;;
34982;SDS011;21187;50.976;13.720;2022-09-21T07:41:46;14.38;;;6.38;;
34982;SDS011;21187;50.976;13.720;2022-09-21T07:46:50;22.23;;;6.65;;
34982;SDS011;21187;50.976;13.720;2022-09-21T07:51:52;12.43;;;5.63;;
34982;SDS011;21187;50.976;13.720;2022-09-21T07:56:54;14.52;;;5.93;;
34982;SDS011;21187;50.976;13.720;2022-09-21T08:02:15;15.95;;;6.88;;
34982;SDS011;21187;50.976;13.720;2022-09-21T08:07:19;15.20;;;5.68;;
34982;SDS011;21187;50.976;13.720;2022-09-21T08:12:21;15.65;;;6.03;;
34982;SDS011;21187;50.976;13.720;2022-09-21T08:17:22;13.45;;;5.43;;
34982;SDS011;21187;50.976;13.720;2022-09-21T08:22:25;10.23;;;5.55;;
34982;SDS011;21187;50.976;13.720;2022-09-21T08:27:27;14.20;;;5.47;;
34982;SDS011;21187;50.976;13.720;2022-09-21T08:32:29;11.80;;;5.00;;
34982;SDS011;21187;50.976;13.720;2022-09-21T08:37:52;10.00;;;4.95;;
34982;SDS011;21187;50.976;13.720;2022-09-21T08:42:59;7.90;;;4.30;;
34982;SDS011;21187;50.976;13.720;2022-09-21T08:48:04;13.43;;;4.45;;
34982;SDS011;21187;50.976;13.720;2022-09-21T08:58:41;11.57;;;4.13;;
34982;SDS011;21187;50.976;13.720;2022-09-21T09:19:42;7.97;;;2.65;;
34982;SDS011;21187;50.976;13.720;2022-09-21T09:24:51;7.43;;;2.40;;
34982;SDS011;21187;50.976;13.720;2022-09-21T09:40:41;6.15;;;1.90;;
34982;SDS011;21187;50.976;13.720;2022-09-21T09:51:53;9.05;;;4.55;;
34982;SDS011;21187;50.976;13.720;2022-09-21T09:56:56;6.70;;;5.15;;
34982;SDS011;21187;50.976;13.720;2022-09-21T10:01:59;4.32;;;2.35;;
34982;SDS011;21187;50.976;13.720;2022-09-21T10:07:16;4.10;;;1.83;;
34982;SDS011;21187;50.976;13.720;2022-09-21T10:12:23;2.88;;;1.30;;
34982;SDS011;21187;50.976;13.720;2022-09-21T10:17:27;2.58;;;1.45;;
34982;SDS011;21187;50.976;13.720;2022-09-21T10:22:29;2.85;;;1.55;;
34982;SDS011;21187;50.976;13.720;2022-09-21T10:27:34;6.55;;;1.33;;
34982;SDS011;21187;50.976;13.720;2022-09-21T10:32:46;4.45;;;1.75;;
34982;SDS011;21187;50.976;13.720;2022-09-21T10:38:15;6.40;;;2.05;;
34982;SDS011;21187;50.976;13.720;2022-09-21T10:43:24;4.85;;;1.23;;
34982;SDS011;21187;50.976;13.720;2022-09-21T10:48:38;2.38;;;1.27;;
34982;SDS011;21187;50.976;13.720;2022-09-21T10:53:40;5.15;;;1.25;;
34982;SDS011;21187;50.976;13.720;2022-09-21T11:10:13;6.13;;;1.00;;
34982;SDS011;21187;50.976;13.720;2022-09-21T11:25:52;3.38;;;1.15;;
34982;SDS011;21187;50.976;13.720;2022-09-21T11:57:51;4.10;;;1.17;;
34982;SDS011;21187;50.976;13.720;2022-09-21T12:03:17;5.03;;;1.17;;
34982;SDS011;21187;50.976;13.720;2022-09-21T12:08:43;1.60;;;0.90;;
34982;SDS011;21187;50.976;13.720;2022-09-21T12:24:39;2.80;;;1.20;;
34982;SDS011;21187;50.976;13.720;2022-09-21T12:29:46;1.50;;;0.77;;
34982;SDS011;21187;50.976;13.720;2022-09-21T12:34:54;2.10;;;0.75;;
34982;SDS011;21187;50.976;13.720;2022-09-21T12:45:32;3.08;;;1.42;;
34982;SDS011;21187;50.976;13.720;2022-09-21T12:50:41;2.42;;;0.80;;
34982;SDS011;21187;50.976;13.720;2022-09-21T13:12:15;4.30;;;1.03;;
34982;SDS011;21187;50.976;13.720;2022-09-21T13:17:25;6.75;;;1.30;;
34982;SDS011;21187;50.976;13.720;2022-09-21T13:22:31;3.42;;;0.98;;
34982;SDS011;21187;50.976;13.720;2022-09-21T13:33:02;7.22;;;1.00;;
34982;SDS011;21187;50.976;13.720;2022-09-21T13:43:43;2.15;;;1.00;;
34982;SDS011;21187;50.976;13.720;2022-09-21T13:48:50;2.88;;;0.80;;
34982;SDS011;21187;50.976;13.720;2022-09-21T13:53:54;6.80;;;1.17;;
34982;SDS011;21187;50.976;13.720;2022-09-21T13:59:00;1.10;;;0.82;;
34982;SDS011;21187;50.976;13.720;2022-09-21T14:04:03;4.43;;;1.40;;
34982;SDS011;21187;50.976;13.720;2022-09-21T14:09:40;1.27;;;0.70;;
34982;SDS011;21187;50.976;13.720;2022-09-21T14:15:29;2.15;;;0.80;;
34982;SDS011;21187;50.976;13.720;2022-09-21T14:20:34;4.32;;;0.98;;
34982;SDS011;21187;50.976;13.720;2022-09-21T14:25:56;2.58;;;0.98;;
34982;SDS011;21187;50.976;13.720;2022-09-21T14:31:00;1.88;;;0.80;;
34982;SDS011;21187;50.976;13.720;2022-09-21T14:36:07;2.47;;;0.70;;
34982;SDS011;21187;50.976;13.720;2022-09-21T14:41:14;6.85;;;1.00;;
34982;SDS011;21187;50.976;13.720;2022-09-21T14:52:02;2.03;;;1.35;;
34982;SDS011;21187;50.976;13.720;2022-09-21T15:02:25;1.45;;;0.70;;
34982;SDS011;21187;50.976;13.720;2022-09-21T15:18:39;7.47;;;2.05;;
34982;SDS011;21187;50.976;13.720;2022-09-21T15:23:42;1.95;;;1.10;;
34982;SDS011;21187;50.976;13.720;2022-09-21T15:28:45;3.35;;;1.02;;
34982;SDS011;21187;50.976;13.720;2022-09-21T15:34:11;3.13;;;1.10;;
34982;SDS011;21187;50.976;13.720;2022-09-21T15:39:22;5.60;;;1.08;;
34982;SDS011;21187;50.976;13.720;2022-09-21T15:44:31;3.08;;;1.33;;
34982;SDS011;21187;50.976;13.720;2022-09-21T15:49:39;3.67;;;1.30;;
34982;SDS011;21187;50.976;13.720;2022-09-21T15:54:44;6.72;;;1.20;;
34982;SDS011;21187;50.976;13.720;2022-09-21T15:59:52;6.65;;;1.83;;
34982;SDS011;21187;50.976;13.720;2022-09-21T16:04:54;3.40;;;2.08;;
34982;SDS011;21187;50.976;13.720;2022-09-21T16:09:56;4.05;;;1.35;;
34982;SDS011;21187;50.976;13.720;2022-09-21T16:15:43;5.35;;;1.73;;
34982;SDS011;21187;50.976;13.720;2022-09-21T16:20:37;2.80;;;1.83;;
34982;SDS011;21187;50.976;13.720;2022-09-21T16:25:51;7.18;;;2.05;;
34982;SDS011;21187;50.976;13.720;2022-09-21T16:30:55;2.25;;;1.63;;
34982;SDS011;21187;50.976;13.720;2022-09-21T16:35:59;7.43;;;2.53;;
34982;SDS011;21187;50.976;13.720;2022-09-21T16:41:05;12.98;;;5.18;;
34982;SDS011;21187;50.976;13.720;2022-09-21T16:46:09;14.65;;;6.75;;
34982;SDS011;21187;50.976;13.720;2022-09-21T16:51:12;9.43;;;4.13;;
34982;SDS011;21187;50.976;13.720;2022-09-21T16:56:15;7.35;;;3.50;;
34982;SDS011;21187;50.976;13.720;2022-09-21T17:01:18;7.55;;;3.90;;
34982;SDS011;21187;50.976;13.720;2022-09-21T17:06:21;10.52;;;3.70;;
34982;SDS011;21187;50.976;13.720;2022-09-21T17:11:23;6.03;;;3.00;;
34982;SDS011;21187;50.976;13.720;2022-09-21T17:16:24;4.90;;;2.50;;
34982;SDS011;21187;50.976;13.720;2022-09-21T17:21:26;9.60;;;3.03;;
34982;SDS011;21187;50.976;13.720;2022-09-21T17:26:28;6.00;;;3.00;;
34982;SDS011;21187;50.976;13.720;2022-09-21T17:31:31;4.60;;;2.67;;
34982;SDS011;21187;50.976;13.720;2022-09-21T17:36:33;5.40;;;1.98;;
34982;SDS011;21187;50.976;13.720;2022-09-21T17:41:58;3.72;;;1.90;;
34982;SDS011;21187;50.976;13.720;2022-09-21T17:47:22;22.92;;;10.68;;
34982;SDS011;21187;50.976;13.720;2022-09-21T17:52:28;4.13;;;2.17;;
34982;SDS011;21187;50.976;13.720;2022-09-21T18:03:29;4.35;;;1.83;;
34982;SDS011;21187;50.976;13.720;2022-09-21T18:08:33;2.00;;;1.50;;
34982;SDS011;21187;50.976;13.720;2022-09-21T18:24:18;4.75;;;1.80;;
34982;SDS011;21187;50.976;13.720;2022-09-21T18:45:24;7.25;;;3.17;;
34982;SDS011;21187;50.976;13.720;2022-09-21T18:50:32;8.18;;;3.70;;
34982;SDS011;21187;50.976;13.720;2022-09-21T18:55:38;4.85;;;2.15;;
34982;SDS011;21187;50.976;13.720;2022-09-21T19:00:41;4.78;;;1.88;;
34982;SDS011;21187;50.976;13.720;2022-09-21T19:05:56;5.75;;;1.70;;
34982;SDS011;21187;50.976;13.720;2022-09-21T19:11:15;2.60;;;1.42;;
34982;SDS011;21187;50.976;13.720;2022-09-21T19:16:33;6.53;;;2.28;;
34982;SDS011;21187;50.976;13.720;2022-09-21T19:21:57;2.70;;;1.70;;
34982;SDS011;21187;50.976;13.720;2022-09-21T19:27:12;3.50;;;1.70;;
34982;SDS011;21187;50.976;13.720;2022-09-21T19:32:40;2.97;;;1.67;;
34982;SDS011;21187;50.976;13.720;2022-09-21T19:37:46;4.30;;;1.98;;
34982;SDS011;21187;50.976;13.720;2022-09-21T19:47:59;5.32;;;1.83;;
34982;SDS011;21187;50.976;13.720;2022-09-21T19:53:05;3.63;;;1.77;;
34982;SDS011;21187;50.976;13.720;2022-09-21T20:03:46;4.47;;;1.92;;
34982;SDS011;21187;50.976;13.720;2022-09-21T20:09:01;3.78;;;1.70;;
34982;SDS011;21187;50.976;13.720;2022-09-21T20:19:39;9.35;;;2.30;;
34982;SDS011;21187;50.976;13.720;2022-09-21T20:29:49;6.25;;;3.85;;
34982;SDS011;21187;50.976;13.720;2022-09-21T20:34:51;4.93;;;1.98;;
34982;SDS011;21187;50.976;13.720;2022-09-21T20:39:53;3.15;;;2.13;;
34982;SDS011;21187;50.976;13.720;2022-09-21T20:44:55;3.47;;;1.80;;
34982;SDS011;21187;50.976;13.720;2022-09-21T20:49:57;4.32;;;2.05;;
34982;SDS011;21187;50.976;13.720;2022-09-21T20:54:58;4.93;;;2.00;;
34982;SDS011;21187;50.976;13.720;2022-09-21T21:00:04;6.68;;;2.28;;
34982;SDS011;21187;50.976;13.720;2022-09-21T21:05:08;7.18;;;2.22;;
34982;SDS011;21187;50.976;13.720;2022-09-21T21:10:11;3.08;;;1.88;;
34982;SDS011;21187;50.976;13.720;2022-09-21T21:15:14;3.40;;;1.80;;
34982;SDS011;21187;50.976;13.720;2022-09-21T21:20:16;4.15;;;2.38;;
34982;SDS011;21187;50.976;13.720;2022-09-21T21:25:18;5.55;;;2.10;;
34982;SDS011;21187;50.976;13.720;2022-09-21T21:30:20;6.30;;;1.92;;
34982;SDS011;21187;50.976;13.720;2022-09-21T21:35:25;3.40;;;1.83;;
34982;SDS011;21187;50.976;13.720;2022-09-21T21:40:27;3.97;;;2.40;;
34982;SDS011;21187;50.976;13.720;2022-09-21T21:45:29;6.22;;;2.55;;
34982;SDS011;21187;50.976;13.720;2022-09-21T21:50:31;6.90;;;2.42;;
34982;SDS011;21187;50.976;13.720;2022-09-21T21:55:33;4.07;;;2.15;;
34982;SDS011;21187;50.976;13.720;2022-09-21T22:00:35;4.90;;;1.85;;
34982;SDS011;21187;50.976;13.720;2022-09-21T22:05:36;5.95;;;2.50;;
34982;SDS011;21187;50.976;13.720;2022-09-21T22:10:38;4.68;;;2.45;;
34982;SDS011;21187;50.976;13.720;2022-09-21T22:15:49;5.90;;;2.30;;
34982;SDS011;21187;50.976;13.720;2022-09-21T22:20:51;4.72;;;2.15;;
34982;SDS011;21187;50.976;13.720;2022-09-21T22:25:59;7.28;;;2.13;;
34982;SDS011;21187;50.976;13.720;2022-09-21T22:31:16;8.30;;;2.50;;
34982;SDS011;21187;50.976;13.720;2022-09-21T22:36:20;4.72;;;2.33;;
34982;SDS011;21187;50.976;13.720;2022-09-21T22:41:25;6.45;;;2.65;;
34982;SDS011;21187;50.976;13.720;2022-09-21T22:46:31;7.85;;;2.97;;
34982;SDS011;21187;50.976;13.720;2022-09-21T22:51:34;7.20;;;3.03;;
34982;SDS011;21187;50.976;13.720;2022-09-21T22:56:36;6.47;;;3.47;;
34982;SDS011;21187;50.976;13.720;2022-09-21T23:01:39;9.20;;;3.42;;
34982;SDS011;21187;50.976;13.720;2022-09-21T23:06:42;13.60;;;3.92;;
34982;SDS011;21187;50.976;13.720;2022-09-21T23:11:46;9.13;;;3.95;;
34982;SDS011;21187;50.976;13.720;2022-09-21T23:16:54;6.47;;;3.58;;
34982;SDS011;21187;50.976;13.720;2022-09-21T23:21:55;12.18;;;4.20;;
34982;SDS011;21187;50.976;13.720;2022-09-21T23:26:58;7.43;;;3.50;;
34982;SDS011;21187;50.976;13.720;2022-09-21T23:31:59;11.05;;;3.85;;
34982;SDS011;21187;50.976;13.720;2022-09-21T23:37:01;8.80;;;3.40;;
34982;SDS011;21187;50.976;13.720;2022-09-21T23:42:03;6.63;;;3.38;;
34982;SDS011;21187;50.976;13.720;2022-09-21T23:47:06;6.50;;;3.20;;
34982;SDS011;21187;50.976;13.720;2022-09-21T23:52:08;6.80;;;3.72;;
34982;SDS011;21187;50.976;13.720;2022-09-21T23:57:10;9.38;;;4.13;;
